Roanoke, Ohio
Current Conditions -  °F | °C
As of 4:53 PM on Thursday 23 Oct 2014 (Local Time) from KPHD Reporting Station
Few Clouds Few Clouds  
Wind Chill: 59°   Ceiling: Unl
Heat Index: 59°   Visibility: 10mi
Dew Point: 44°   Wind: 8mph
Humidity: 58%   Direction: 280°W
Pressure: 30.11"   Gusts: NA
Location:  40.3767°N, 81.2875°W
Report Text: KPHD 232053Z AUTO 28007KT 10SM FEW034 15/07 A3011 RMK AO2 SLP200 T01500067 56013
Loading
Personal Weather Stations






























Interactive Weather Map New forecast layout! Learn more

10-Day Weather Forecast

Advertisements
Track Severe Weather on mobile